Terminal Aerodrome Forecast
Issued by NWS

Current Version | Previous Version | Text Only | Print | Product List | Glossary On
Versions: 1 2 3 4 5 6 7 8 9 10 11 12 13 14 15 16
227
FTUS43 KDTX 220950 AAB
TAFDET
TAF AMD
KDET 220950Z 2210/2306 VRB03KT 2SM BR SCT004 OVC028
      TEMPO 2210/2212 1SM BR OVC004
     FM221400 20006KT 5SM BR OVC030
     FM221600 20010KT P6SM OVC150
     FM222200 18007KT P6SM BKN200=

USA.gov is the U.S. government's official web portal to all federal, state and local government web resources and services.